Time;durP1;ratioP1;P1;durP2;ratioP2;P2;SDS_P1;SDS_P2;PMS_P1;PMS_P2;Temp;Humidity;BMP_temperature;BMP_pressure;BME280_temperature;BME280_humidity;BME280_pressure;Samples;Min_cycle;Max_cycle;Signal;HPM_P1;HPM_P2
2022/01/21 00:00:13;;;;;;;4.20;2.60;;;;;;;;;;5077552;28;20267;-92
2022/01/21 00:02:42;;;;;;;2.77;1.47;;;;;;;;;;5075920;28;20275;-92
2022/01/21 00:05:11;;;;;;;1.93;1.73;;;;;;;;;;5076698;28;20201;-92
2022/01/21 00:07:39;;;;;;;2.77;2.20;;;;;;;;;;5076352;28;20209;-92
2022/01/21 00:10:08;;;;;;;1.50;1.40;;;;;;;;;;5076859;28;20248;-92
2022/01/21 00:12:37;;;;;;;5.10;1.53;;;;;;;;;;5076717;28;20370;-92
2022/01/21 00:15:08;;;;;;;2.63;1.10;;;;;;;;;;5076406;28;20229;-92
2022/01/21 00:17:38;;;;;;;0.90;0.90;;;;;;;;;;5075732;28;20229;-93
2022/01/21 00:31:11;;;;;;;1.90;1.80;;;;;;;;;;5075959;28;20209;-92
2022/01/21 00:33:41;;;;;;;5.13;2.70;;;;;;;;;;5075334;28;20205;-93
2022/01/21 00:36:09;;;;;;;2.73;1.20;;;;;;;;;;5076144;28;20264;-92
2022/01/21 00:38:40;;;;;;;1.97;1.67;;;;;;;;;;5074617;28;20201;-92
2022/01/21 00:41:10;;;;;;;0.90;0.90;;;;;;;;;;5075874;28;20194;-92
2022/01/21 00:43:44;;;;;;;1.00;1.00;;;;;;;;;;5075090;28;20213;-92
2022/01/21 00:46:13;;;;;;;4.37;1.10;;;;;;;;;;5074941;28;20165;-92
2022/01/21 00:48:43;;;;;;;1.00;1.00;;;;;;;;;;5074689;28;20269;-92
2022/01/21 00:51:11;;;;;;;1.77;1.77;;;;;;;;;;5075162;28;20225;-92
2022/01/21 00:53:40;;;;;;;0.80;0.80;;;;;;;;;;5074578;28;20238;-91
2022/01/21 00:56:08;;;;;;;1.17;1.07;;;;;;;;;;5074420;28;20237;-90
2022/01/21 00:58:36;;;;;;;0.90;0.90;;;;;;;;;;5074772;28;20292;-90
2022/01/21 01:01:05;;;;;;;0.77;0.77;;;;;;;;;;5075109;28;20259;-90
2022/01/21 01:03:33;;;;;;;0.80;0.80;;;;;;;;;;5074842;28;20256;-90
2022/01/21 01:06:03;;;;;;;0.77;0.77;;;;;;;;;;5075232;28;20201;-89
2022/01/21 01:08:32;;;;;;;0.80;0.80;;;;;;;;;;5074774;28;20303;-89
2022/01/21 01:22:18;;;;;;;0.80;0.80;;;;;;;;;;5060303;28;20225;-88
2022/01/21 01:27:37;;;;;;;0.80;0.80;;;;;;;;;;5078541;28;20217;-89
2022/01/21 01:30:07;;;;;;;0.80;0.80;;;;;;;;;;5078183;28;20296;-89
2022/01/21 01:32:36;;;;;;;0.80;0.80;;;;;;;;;;5078716;28;20292;-89
2022/01/21 01:35:04;;;;;;;0.90;0.90;;;;;;;;;;5078182;28;20201;-89
2022/01/21 01:37:56;;;;;;;0.90;0.90;;;;;;;;;;5077988;28;20240;-89
2022/01/21 01:40:28;;;;;;;1.10;1.10;;;;;;;;;;5078379;28;20186;-89
2022/01/21 01:51:23;;;;;;;0.90;0.90;;;;;;;;;;5078030;28;20182;-88
2022/01/21 01:53:54;;;;;;;0.70;0.70;;;;;;;;;;5077560;28;20245;-88
2022/01/21 01:56:24;;;;;;;0.80;0.80;;;;;;;;;;5077725;28;20229;-89
2022/01/21 01:58:52;;;;;;;0.80;0.80;;;;;;;;;;5078145;28;20217;-89
2022/01/21 02:01:21;;;;;;;0.80;0.80;;;;;;;;;;5077731;28;20229;-90
2022/01/21 02:03:50;;;;;;;0.80;0.80;;;;;;;;;;5077822;28;20236;-88
2022/01/21 02:06:18;;;;;;;0.80;0.80;;;;;;;;;;5077438;28;20201;-90
2022/01/21 02:08:46;;;;;;;0.80;0.80;;;;;;;;;;5077498;28;20263;-89
2022/01/21 02:11:16;;;;;;;0.80;0.80;;;;;;;;;;5078368;28;20201;-89
2022/01/21 02:13:48;;;;;;;0.90;0.90;;;;;;;;;;5077084;28;20201;-90
2022/01/21 02:16:32;;;;;;;0.80;0.80;;;;;;;;;;5077970;28;20190;-90
2022/01/21 02:21:48;;;;;;;1.10;1.10;;;;;;;;;;5077725;28;20237;-90
2022/01/21 02:24:19;;;;;;;1.67;1.57;;;;;;;;;;5076728;28;20213;-90
2022/01/21 02:26:48;;;;;;;3.17;1.10;;;;;;;;;;5077908;28;20186;-89
2022/01/21 02:29:26;;;;;;;0.80;0.80;;;;;;;;;;5077039;28;20205;-90
2022/01/21 02:31:55;;;;;;;0.80;0.80;;;;;;;;;;5077585;28;20190;-90
2022/01/21 02:34:24;;;;;;;0.80;0.80;;;;;;;;;;5077245;28;20229;-90
2022/01/21 02:36:54;;;;;;;1.20;1.20;;;;;;;;;;5077154;28;20225;-90
2022/01/21 02:39:22;;;;;;;0.80;0.80;;;;;;;;;;5077184;28;20255;-90
2022/01/21 02:41:51;;;;;;;4.23;1.30;;;;;;;;;;5077198;28;20236;-90
2022/01/21 02:44:19;;;;;;;0.80;0.80;;;;;;;;;;5077279;28;20229;-90
2022/01/21 02:46:54;;;;;;;0.80;0.80;;;;;;;;;;5076843;28;20201;-91
2022/01/21 02:49:23;;;;;;;1.10;1.10;;;;;;;;;;5077157;28;20193;-90
2022/01/21 02:51:51;;;;;;;2.53;1.43;;;;;;;;;;5077283;28;20213;-90
2022/01/21 02:54:21;;;;;;;2.17;0.90;;;;;;;;;;5076987;28;20237;-90
2022/01/21 02:56:50;;;;;;;2.93;2.77;;;;;;;;;;5076642;28;20237;-91
2022/01/21 02:59:19;;;;;;;0.90;0.83;;;;;;;;;;5076547;28;20226;-91
2022/01/21 03:01:49;;;;;;;0.90;0.90;;;;;;;;;;5076682;28;20229;-91
2022/01/21 03:04:27;;;;;;;0.83;0.83;;;;;;;;;;5076720;28;20264;-90
2022/01/21 03:06:56;;;;;;;5.20;1.23;;;;;;;;;;5076692;28;20208;-90
2022/01/21 03:09:25;;;;;;;0.90;0.90;;;;;;;;;;5076983;28;20206;-90
2022/01/21 03:11:54;;;;;;;1.00;1.00;;;;;;;;;;5076357;28;20212;-90
2022/01/21 03:14:22;;;;;;;0.80;0.80;;;;;;;;;;5076235;28;20259;-90
2022/01/21 03:16:51;;;;;;;1.67;1.67;;;;;;;;;;5076148;28;20289;-91
2022/01/21 03:19:19;;;;;;;0.80;0.80;;;;;;;;;;5076436;28;20198;-90
2022/01/21 03:21:47;;;;;;;0.90;0.90;;;;;;;;;;5076138;28;20232;-89
2022/01/21 03:24:16;;;;;;;0.70;0.70;;;;;;;;;;5076182;28;20233;-90
2022/01/21 03:26:45;;;;;;;0.80;0.80;;;;;;;;;;5076172;28;20210;-91
2022/01/21 03:29:14;;;;;;;0.80;0.80;;;;;;;;;;5076444;28;20217;-90
2022/01/21 03:31:42;;;;;;;0.80;0.80;;;;;;;;;;5076194;28;20205;-91
2022/01/21 03:34:11;;;;;;;0.80;0.80;;;;;;;;;;5076155;28;20204;-91
2022/01/21 03:36:40;;;;;;;0.80;0.80;;;;;;;;;;5075449;28;20210;-91
2022/01/21 03:39:08;;;;;;;0.80;0.80;;;;;;;;;;5075655;28;20233;-91
2022/01/21 03:41:37;;;;;;;0.80;0.80;;;;;;;;;;5076061;28;20247;-90
2022/01/21 03:44:07;;;;;;;0.80;0.80;;;;;;;;;;5076146;28;20202;-91
2022/01/21 03:46:35;;;;;;;1.00;1.00;;;;;;;;;;5075522;28;20217;-91
2022/01/21 03:49:07;;;;;;;0.80;0.80;;;;;;;;;;5074478;28;20237;-91
2022/01/21 03:51:35;;;;;;;3.33;1.27;;;;;;;;;;5075565;28;20201;-91
2022/01/21 03:54:04;;;;;;;1.67;1.57;;;;;;;;;;5075278;28;20263;-90
2022/01/21 03:56:32;;;;;;;0.90;0.90;;;;;;;;;;5075422;28;20255;-91
2022/01/21 03:59:01;;;;;;;0.80;0.80;;;;;;;;;;5075866;28;20236;-90
2022/01/21 04:01:30;;;;;;;0.90;0.90;;;;;;;;;;5075898;28;20223;-91
2022/01/21 04:03:59;;;;;;;1.80;1.30;;;;;;;;;;5075519;28;20218;-90
2022/01/21 04:06:27;;;;;;;2.70;1.20;;;;;;;;;;5075489;28;20247;-91
2022/01/21 04:08:56;;;;;;;1.40;1.30;;;;;;;;;;5076102;28;20247;-92
2022/01/21 04:11:24;;;;;;;5.10;1.93;;;;;;;;;;5075282;28;20201;-91
2022/01/21 04:13:54;;;;;;;1.97;1.87;;;;;;;;;;5075930;28;20255;-91
2022/01/21 04:16:23;;;;;;;3.00;1.70;;;;;;;;;;5075507;28;20190;-91
2022/01/21 04:18:53;;;;;;;2.57;1.77;;;;;;;;;;5075739;28;20257;-91
2022/01/21 04:21:22;;;;;;;6.53;1.10;;;;;;;;;;5075728;28;20197;-92
2022/01/21 04:23:50;;;;;;;3.53;1.17;;;;;;;;;;5075236;28;20284;-92
2022/01/21 04:26:18;;;;;;;4.37;1.50;;;;;;;;;;5076258;28;20262;-92
2022/01/21 04:28:47;;;;;;;2.53;1.27;;;;;;;;;;5074960;28;20198;-90
2022/01/21 04:31:15;;;;;;;1.40;1.30;;;;;;;;;;5075434;28;20300;-89
2022/01/21 04:33:44;;;;;;;1.47;1.43;;;;;;;;;;5074610;28;20292;-90
2022/01/21 04:36:14;;;;;;;3.23;1.23;;;;;;;;;;5075273;28;20236;-89
2022/01/21 04:38:42;;;;;;;2.77;1.20;;;;;;;;;;5074862;28;20267;-90
2022/01/21 04:41:26;;;;;;;2.47;1.83;;;;;;;;;;5075042;28;20229;-91
2022/01/21 04:49:37;;;;;;;4.43;1.60;;;;;;;;;;5013113;28;20294;-90
2022/01/21 04:52:07;;;;;;;1.13;1.13;;;;;;;;;;5060120;28;20265;-90
2022/01/21 04:54:37;;;;;;;1.20;1.20;;;;;;;;;;5075332;28;20189;-90
2022/01/21 04:57:06;;;;;;;0.90;0.90;;;;;;;;;;5074725;28;20210;-90
2022/01/21 04:59:34;;;;;;;0.70;0.70;;;;;;;;;;5075039;28;20267;-90
2022/01/21 05:02:03;;;;;;;1.03;1.03;;;;;;;;;;5074875;28;20206;-89
2022/01/21 05:04:31;;;;;;;0.80;0.80;;;;;;;;;;5073984;28;20232;-90
2022/01/21 05:07:02;;;;;;;0.70;0.70;;;;;;;;;;5074317;28;20276;-90
2022/01/21 05:09:34;;;;;;;3.10;1.20;;;;;;;;;;5074671;28;20212;-89
2022/01/21 05:12:07;;;;;;;1.03;1.03;;;;;;;;;;5074632;28;20198;-90
2022/01/21 05:14:47;;;;;;;11.47;1.67;;;;;;;;;;5074610;28;20240;-90
2022/01/21 05:17:16;;;;;;;0.80;0.80;;;;;;;;;;5074269;28;20217;-90
2022/01/21 05:19:44;;;;;;;2.00;1.90;;;;;;;;;;5074440;28;20245;-90
2022/01/21 05:22:12;;;;;;;0.80;0.80;;;;;;;;;;5074565;28;20229;-90
2022/01/21 05:24:42;;;;;;;0.80;0.80;;;;;;;;;;5074552;28;20275;-90
2022/01/21 05:27:12;;;;;;;0.80;0.80;;;;;;;;;;5074069;28;20255;-90
2022/01/21 05:29:41;;;;;;;1.20;1.20;;;;;;;;;;5074493;28;20273;-90
2022/01/21 05:32:09;;;;;;;0.80;0.80;;;;;;;;;;5074185;28;20233;-90
2022/01/21 05:34:38;;;;;;;0.80;0.80;;;;;;;;;;5074741;28;20213;-90
2022/01/21 05:37:08;;;;;;;2.77;1.03;;;;;;;;;;5074668;28;20316;-90
2022/01/21 05:39:37;;;;;;;0.70;0.70;;;;;;;;;;5074147;28;20267;-90
2022/01/21 05:42:07;;;;;;;0.90;0.90;;;;;;;;;;5074543;28;20291;-91
2022/01/21 05:47:22;;;;;;;5.13;3.43;;;;;;;;;;5074573;28;20239;-90
2022/01/21 05:49:54;;;;;;;2.57;2.07;;;;;;;;;;5074997;28;20198;-90
2022/01/21 05:52:32;;;;;;;2.10;1.33;;;;;;;;;;5074268;28;20257;-90
2022/01/21 05:55:01;;;;;;;6.73;2.83;;;;;;;;;;5074629;28;20202;-90
2022/01/21 05:57:31;;;;;;;2.00;1.67;;;;;;;;;;5074629;28;20264;-89
2022/01/21 05:59:59;;;;;;;1.10;1.10;;;;;;;;;;5075500;28;20252;-90
2022/01/21 06:02:27;;;;;;;0.80;0.80;;;;;;;;;;5078322;28;20224;-89
2022/01/21 06:04:56;;;;;;;0.80;0.80;;;;;;;;;;5077932;28;20221;-90
2022/01/21 06:07:24;;;;;;;0.70;0.70;;;;;;;;;;5078413;28;20226;-91
2022/01/21 06:09:53;;;;;;;0.73;0.73;;;;;;;;;;5078245;28;20202;-90
2022/01/21 06:12:21;;;;;;;0.80;0.80;;;;;;;;;;5077578;28;20263;-90
2022/01/21 06:14:51;;;;;;;0.73;0.73;;;;;;;;;;5077515;28;20245;-90
2022/01/21 06:17:19;;;;;;;1.10;1.00;;;;;;;;;;5078230;28;20233;-90
2022/01/21 06:19:48;;;;;;;0.80;0.80;;;;;;;;;;5078410;28;20222;-90
2022/01/21 06:22:16;;;;;;;0.80;0.80;;;;;;;;;;5077670;28;20210;-90
2022/01/21 06:24:45;;;;;;;0.80;0.80;;;;;;;;;;5077371;28;20236;-90
2022/01/21 06:27:13;;;;;;;1.63;1.53;;;;;;;;;;5077443;28;20232;-89
2022/01/21 06:29:42;;;;;;;0.90;0.90;;;;;;;;;;5077834;28;20280;-90
2022/01/21 06:32:11;;;;;;;1.10;1.10;;;;;;;;;;5077479;28;20263;-90
2022/01/21 06:34:40;;;;;;;0.70;0.70;;;;;;;;;;5077806;28;20252;-90
2022/01/21 06:37:08;;;;;;;0.80;0.80;;;;;;;;;;5077924;28;20201;-90
2022/01/21 06:39:37;;;;;;;0.80;0.80;;;;;;;;;;5077372;28;20283;-90
2022/01/21 06:42:05;;;;;;;0.80;0.80;;;;;;;;;;5077976;28;20233;-89
2022/01/21 06:44:34;;;;;;;0.97;0.97;;;;;;;;;;5076711;28;20236;-89
2022/01/21 06:47:02;;;;;;;1.00;1.00;;;;;;;;;;5077266;28;20255;-89
2022/01/21 06:49:32;;;;;;;7.97;2.07;;;;;;;;;;5076992;28;20201;-89
2022/01/21 06:52:00;;;;;;;2.37;1.10;;;;;;;;;;5077146;28;20304;-90
2022/01/21 06:54:29;;;;;;;1.10;1.10;;;;;;;;;;5077440;28;20315;-90
2022/01/21 06:56:57;;;;;;;0.80;0.80;;;;;;;;;;5077044;28;20198;-89
2022/01/21 06:59:26;;;;;;;0.80;0.80;;;;;;;;;;5077422;28;20225;-89
2022/01/21 07:01:54;;;;;;;1.63;1.63;;;;;;;;;;5077361;28;20209;-88
2022/01/21 07:04:23;;;;;;;1.23;1.23;;;;;;;;;;5077539;28;20226;-88
2022/01/21 07:06:56;;;;;;;0.73;0.73;;;;;;;;;;5077009;28;20232;-90
2022/01/21 07:09:25;;;;;;;0.80;0.80;;;;;;;;;;5077341;28;20221;-90
2022/01/21 07:11:53;;;;;;;0.80;0.80;;;;;;;;;;5077250;28;20274;-90
2022/01/21 07:14:22;;;;;;;1.27;1.23;;;;;;;;;;5076807;28;20233;-89
2022/01/21 07:16:50;;;;;;;0.80;0.80;;;;;;;;;;5076970;28;20202;-90
2022/01/21 07:19:19;;;;;;;1.73;1.63;;;;;;;;;;5076743;28;20229;-90
2022/01/21 07:21:47;;;;;;;0.90;0.90;;;;;;;;;;5077149;28;20213;-90
2022/01/21 07:24:17;;;;;;;0.80;0.80;;;;;;;;;;5076852;28;20201;-90
2022/01/21 07:26:45;;;;;;;3.80;2.07;;;;;;;;;;5076358;28;20221;-90
2022/01/21 07:29:14;;;;;;;0.70;0.70;;;;;;;;;;5076348;28;20221;-90
2022/01/21 07:31:42;;;;;;;0.80;0.80;;;;;;;;;;5076313;28;20206;-90
2022/01/21 07:34:11;;;;;;;1.40;1.23;;;;;;;;;;5076257;28;20233;-90
2022/01/21 07:36:39;;;;;;;0.77;0.77;;;;;;;;;;5076796;28;20280;-87
2022/01/21 07:39:32;;;;;;;1.80;1.67;;;;;;;;;;5075725;28;20283;-89
2022/01/21 07:42:03;;;;;;;1.33;1.23;;;;;;;;;;5076324;28;20213;-89
2022/01/21 07:44:31;;;;;;;24.87;2.57;;;;;;;;;;5075648;28;20227;-91
2022/01/21 07:47:00;;;;;;;0.90;0.90;;;;;;;;;;5066997;28;20210;-88
2022/01/21 07:49:28;;;;;;;4.13;1.13;;;;;;;;;;5077601;28;20297;-89
2022/01/21 07:51:57;;;;;;;2.50;0.87;;;;;;;;;;5075954;28;20218;-88
2022/01/21 07:54:37;;;;;;;;;;;;;;;;;;;;;
2022/01/21 07:57:10;;;;;;;3.13;1.93;;;;;;;;;;5066454;28;20268;-87
2022/01/21 07:59:38;;;;;;;0.90;0.90;;;;;;;;;;5068404;28;20228;-88
2022/01/21 08:02:07;;;;;;;2.07;1.37;;;;;;;;;;5073826;28;20202;-89
2022/01/21 08:04:35;;;;;;;0.80;0.80;;;;;;;;;;5072007;28;20213;-88
2022/01/21 08:07:04;;;;;;;0.70;0.70;;;;;;;;;;5068610;28;20206;-89
2022/01/21 08:09:32;;;;;;;1.03;0.97;;;;;;;;;;5065367;28;20202;-89
2022/01/21 08:12:01;;;;;;;0.80;0.80;;;;;;;;;;5066220;28;20213;-90
2022/01/21 08:14:31;;;;;;;4.03;1.77;;;;;;;;;;5066626;28;20244;-89
2022/01/21 08:17:01;;;;;;;9.40;2.70;;;;;;;;;;5069738;28;20208;-89
2022/01/21 08:19:30;;;;;;;1.40;1.30;;;;;;;;;;5065570;28;20208;-90
2022/01/21 08:21:58;;;;;;;2.33;1.93;;;;;;;;;;5066103;28;20275;-92
2022/01/21 08:24:27;;;;;;;2.80;1.93;;;;;;;;;;5069316;28;20229;-90
2022/01/21 08:26:56;;;;;;;3.57;1.53;;;;;;;;;;5067320;28;20270;-90
2022/01/21 08:29:24;;;;;;;6.13;2.40;;;;;;;;;;5067428;28;20209;-92
2022/01/21 08:31:55;;;;;;;1.10;1.10;;;;;;;;;;5073868;28;20214;-91
2022/01/21 08:34:23;;;;;;;5.70;2.50;;;;;;;;;;5067065;28;20198;-89
2022/01/21 08:36:54;;;;;;;2.83;1.80;;;;;;;;;;5065288;28;20205;-90
2022/01/21 08:39:23;;;;;;;16.70;2.23;;;;;;;;;;5067858;28;20220;-90
2022/01/21 08:41:51;;;;;;;6.90;1.97;;;;;;;;;;5067883;28;20272;-89
2022/01/21 08:44:20;;;;;;;2.47;1.33;;;;;;;;;;5067150;28;20205;-90
2022/01/21 08:46:48;;;;;;;10.53;2.13;;;;;;;;;;5068908;28;20210;-89
2022/01/21 08:49:38;;;;;;;0.93;0.93;;;;;;;;;;5065294;28;20198;-88
2022/01/21 08:52:07;;;;;;;6.20;1.63;;;;;;;;;;5066088;28;20199;-89
2022/01/21 08:54:35;;;;;;;1.10;1.03;;;;;;;;;;5064763;28;20250;-88
2022/01/21 08:57:04;;;;;;;2.30;1.60;;;;;;;;;;5067455;28;20202;-88
2022/01/21 08:59:32;;;;;;;5.10;2.00;;;;;;;;;;5067688;28;20213;-90
2022/01/21 09:02:01;;;;;;;2.47;2.17;;;;;;;;;;5066219;28;20254;-88
2022/01/21 09:04:29;;;;;;;5.77;1.50;;;;;;;;;;5061555;28;20310;-87
2022/01/21 09:06:59;;;;;;;9.07;1.83;;;;;;;;;;5065198;28;20252;-88
2022/01/21 09:09:28;;;;;;;6.07;1.40;;;;;;;;;;5057171;28;20267;-88
2022/01/21 09:12:00;;;;;;;3.67;1.53;;;;;;;;;;5068369;28;20205;-89
2022/01/21 09:14:29;;;;;;;3.87;1.93;;;;;;;;;;5071820;28;20240;-91
2022/01/21 09:16:58;;;;;;;1.03;1.03;;;;;;;;;;5074072;28;20214;-92
2022/01/21 09:19:26;;;;;;;3.67;1.60;;;;;;;;;;5074066;28;20198;-90
2022/01/21 09:21:56;;;;;;;7.60;1.87;;;;;;;;;;5067176;28;20320;-89
2022/01/21 09:24:25;;;;;;;3.57;1.97;;;;;;;;;;5062527;28;20206;-88
2022/01/21 09:26:54;;;;;;;2.80;1.70;;;;;;;;;;5061835;28;20207;-88
2022/01/21 09:29:22;;;;;;;4.13;1.63;;;;;;;;;;5066751;28;20255;-88
2022/01/21 09:31:55;;;;;;;8.83;1.50;;;;;;;;;;5069248;28;20217;-91
2022/01/21 09:34:32;;;;;;;3.43;2.13;;;;;;;;;;5058138;28;20268;-90
2022/01/21 09:37:02;;;;;;;0.93;0.93;;;;;;;;;;5073045;28;20201;-91
2022/01/21 09:39:32;;;;;;;3.57;1.40;;;;;;;;;;5074466;28;20207;-87
2022/01/21 09:42:02;;;;;;;5.37;1.00;;;;;;;;;;5061980;28;20267;-91
2022/01/21 09:44:31;;;;;;;1.20;1.10;;;;;;;;;;5070301;28;20272;-88
2022/01/21 09:47:01;;;;;;;3.40;2.30;;;;;;;;;;5080401;28;20214;-90
2022/01/21 09:49:29;;;;;;;3.70;1.47;;;;;;;;;;5091611;28;20217;-90
2022/01/21 09:51:59;;;;;;;8.60;2.50;;;;;;;;;;5070146;28;20253;-87
2022/01/21 09:54:29;;;;;;;4.07;1.20;;;;;;;;;;5074230;28;20234;-89
2022/01/21 09:57:00;;;;;;;6.70;2.23;;;;;;;;;;5069359;28;20232;-91
2022/01/21 09:59:29;;;;;;;5.17;2.40;;;;;;;;;;5069383;28;20220;-88
2022/01/21 10:02:01;;;;;;;3.23;1.40;;;;;;;;;;5071404;28;20231;-90
2022/01/21 10:04:31;;;;;;;2.07;1.60;;;;;;;;;;5069910;28;20226;-88
2022/01/21 10:06:59;;;;;;;3.23;1.97;;;;;;;;;;5070551;28;20245;-89
2022/01/21 10:09:28;;;;;;;4.33;1.63;;;;;;;;;;5079695;28;20199;-91
2022/01/21 10:12:01;;;;;;;6.40;1.67;;;;;;;;;;5074907;28;20205;-88
2022/01/21 10:14:31;;;;;;;8.80;2.83;;;;;;;;;;5085721;28;20233;-85
2022/01/21 10:17:00;;;;;;;4.20;1.63;;;;;;;;;;5076438;28;20205;-90
2022/01/21 10:19:29;;;;;;;1.40;1.07;;;;;;;;;;5070821;28;20227;-90
2022/01/21 10:21:59;;;;;;;9.20;2.43;;;;;;;;;;5067612;28;20312;-91
2022/01/21 10:24:28;;;;;;;6.23;2.40;;;;;;;;;;5070247;28;20210;-93
2022/01/21 10:26:57;;;;;;;4.07;2.20;;;;;;;;;;5068464;28;20212;-93
2022/01/21 10:29:36;;;;;;;15.30;3.13;;;;;;;;;;5069529;28;20218;-90
2022/01/21 10:32:07;;;;;;;3.73;1.43;;;;;;;;;;5070417;28;20244;-89
2022/01/21 10:34:42;;;;;;;9.47;2.27;;;;;;;;;;5065305;28;20212;-90
2022/01/21 10:37:24;;;;;;;11.20;1.97;;;;;;;;;;5065595;28;20201;-87
2022/01/21 10:40:00;;;;;;;9.77;2.27;;;;;;;;;;5065131;28;20202;-88
2022/01/21 10:42:29;;;;;;;11.97;2.80;;;;;;;;;;5061630;28;20218;-89
2022/01/21 10:45:00;;;;;;;2.23;1.37;;;;;;;;;;5062966;28;20238;-89
2022/01/21 10:47:29;;;;;;;5.77;2.73;;;;;;;;;;5068518;28;20205;-89
2022/01/21 10:49:59;;;;;;;10.93;4.97;;;;;;;;;;5070729;28;20272;-90
2022/01/21 10:52:35;;;;;;;3.07;1.50;;;;;;;;;;5070316;28;20296;-89
2022/01/21 10:55:05;;;;;;;5.70;2.03;;;;;;;;;;5069867;28;20221;-91
2022/01/21 10:57:36;;;;;;;12.13;2.63;;;;;;;;;;5071146;28;20202;-91
2022/01/21 11:00:09;;;;;;;4.90;2.00;;;;;;;;;;5068114;28;20211;-89
2022/01/21 11:02:40;;;;;;;10.57;2.47;;;;;;;;;;5068978;28;20254;-91
2022/01/21 11:05:13;;;;;;;3.20;2.90;;;;;;;;;;5068248;28;20215;-91
2022/01/21 11:07:46;;;;;;;3.87;2.07;;;;;;;;;;5072596;28;20261;-91
2022/01/21 11:10:37;;;;;;;4.70;1.60;;;;;;;;;;5081897;28;20214;-92
2022/01/21 11:13:21;;;;;;;2.90;1.80;;;;;;;;;;5072186;28;20248;-88
2022/01/21 11:15:56;;;;;;;1.70;1.60;;;;;;;;;;5077985;28;20216;-93
2022/01/21 11:32:08;;;;;;;8.07;2.87;;;;;;;;;;4960836;28;20204;-93
2022/01/21 11:34:49;;;;;;;3.50;1.00;;;;;;;;;;5072014;28;20226;-90
2022/01/21 11:37:23;;;;;;;5.70;2.17;;;;;;;;;;5068711;28;20211;-91
2022/01/21 11:39:52;;;;;;;6.60;2.50;;;;;;;;;;5069533;28;20223;-92
2022/01/21 11:42:20;;;;;;;2.43;1.43;;;;;;;;;;5071179;28;20234;-91
2022/01/21 11:44:52;;;;;;;3.60;2.17;;;;;;;;;;5073705;28;20246;-93
2022/01/21 11:47:48;;;;;;;10.50;2.33;;;;;;;;;;5067503;28;20211;-92
2022/01/21 11:50:18;;;;;;;4.43;2.17;;;;;;;;;;5070950;28;20261;-90
2022/01/21 11:52:47;;;;;;;2.60;1.80;;;;;;;;;;5074906;28;20206;-89
2022/01/21 11:55:30;;;;;;;5.20;1.87;;;;;;;;;;5070933;28;20263;-86
2022/01/21 11:58:11;;;;;;;1.37;1.33;;;;;;;;;;5065898;28;20257;-90
2022/01/21 12:00:40;;;;;;;1.50;1.40;;;;;;;;;;5071712;28;20207;-86
2022/01/21 12:03:11;;;;;;;6.83;2.10;;;;;;;;;;5071919;28;20236;-91
2022/01/21 12:05:39;;;;;;;4.33;1.80;;;;;;;;;;5064912;28;20215;-87
2022/01/21 12:08:08;;;;;;;0.70;0.70;;;;;;;;;;5068868;28;20210;-86
2022/01/21 12:10:40;;;;;;;5.23;2.00;;;;;;;;;;5065271;28;20211;-88
2022/01/21 12:13:15;;;;;;;1.80;1.63;;;;;;;;;;5066562;28;20203;-86
2022/01/21 12:15:55;;;;;;;7.07;2.50;;;;;;;;;;5067228;28;20748;-87
2022/01/21 12:18:57;;;;;;;8.03;2.83;;;;;;;;;;5066983;28;20214;-86
2022/01/21 12:21:27;;;;;;;1.13;0.97;;;;;;;;;;5066226;28;20207;-87
2022/01/21 12:23:59;;;;;;;2.07;1.33;;;;;;;;;;5065640;28;20224;-85
2022/01/21 12:26:28;;;;;;;5.23;2.13;;;;;;;;;;5065160;28;20213;-87
2022/01/21 12:29:15;;;;;;;16.23;3.10;;;;;;;;;;5067403;28;20219;-86
2022/01/21 12:32:01;;;;;;;2.80;1.50;;;;;;;;;;5072417;28;20210;-86
2022/01/21 12:34:51;;;;;;;3.60;2.40;;;;;;;;;;5070994;28;20254;-85
2022/01/21 12:37:24;;;;;;;2.30;1.20;;;;;;;;;;5071296;28;20221;-86
2022/01/21 12:39:53;;;;;;;4.20;1.77;;;;;;;;;;5070394;28;20260;-87
2022/01/21 12:42:25;;;;;;;2.43;1.67;;;;;;;;;;5062806;28;20236;-85
2022/01/21 12:44:54;;;;;;;3.60;1.53;;;;;;;;;;5067093;28;20210;-87
2022/01/21 12:47:30;;;;;;;1.53;1.43;;;;;;;;;;5067779;28;20249;-88
2022/01/21 12:50:06;;;;;;;8.40;3.00;;;;;;;;;;5068001;28;20210;-85
2022/01/21 12:52:48;;;;;;;0.73;0.73;;;;;;;;;;5068318;28;20264;-88
2022/01/21 12:58:16;;;;;;;9.53;2.93;;;;;;;;;;5049148;28;20207;-89
2022/01/21 13:00:45;;;;;;;5.07;2.17;;;;;;;;;;5042469;28;20220;-89
2022/01/21 13:03:17;;;;;;;5.10;2.40;;;;;;;;;;5047528;28;20236;-87
2022/01/21 13:05:54;;;;;;;5.90;1.23;;;;;;;;;;5048230;28;20234;-87
2022/01/21 13:08:32;;;;;;;4.10;1.90;;;;;;;;;;5048159;28;20239;-86
2022/01/21 13:11:11;;;;;;;4.20;2.23;;;;;;;;;;5045460;28;20204;-87
2022/01/21 13:13:49;;;;;;;3.03;1.43;;;;;;;;;;5057770;28;20205;-86
2022/01/21 13:16:27;;;;;;;16.93;5.00;;;;;;;;;;5053105;28;20210;-87
2022/01/21 13:19:01;;;;;;;3.30;1.43;;;;;;;;;;5052934;28;20231;-87
2022/01/21 13:21:31;;;;;;;7.63;1.60;;;;;;;;;;5056290;28;20228;-86
2022/01/21 13:24:03;;;;;;;2.80;1.90;;;;;;;;;;5053416;28;20215;-87
2022/01/21 13:26:36;;;;;;;6.97;1.77;;;;;;;;;;5052396;28;20240;-87
2022/01/21 13:29:06;;;;;;;4.30;2.60;;;;;;;;;;5057589;28;20211;-87
2022/01/21 13:31:36;;;;;;;4.60;2.87;;;;;;;;;;5058693;28;20208;-86
2022/01/21 13:34:09;;;;;;;3.67;1.80;;;;;;;;;;5055962;28;20200;-87
2022/01/21 13:36:40;;;;;;;1.83;1.73;;;;;;;;;;5042522;28;20196;-87
2022/01/21 13:39:11;;;;;;;7.50;2.70;;;;;;;;;;5052658;28;20207;-87
2022/01/21 13:41:50;;;;;;;21.00;2.43;;;;;;;;;;5054207;28;20207;-87
2022/01/21 13:44:25;;;;;;;1.50;1.07;;;;;;;;;;5058160;28;20253;-87
2022/01/21 13:46:54;;;;;;;1.67;1.53;;;;;;;;;;5051110;28;20289;-88
2022/01/21 13:49:27;;;;;;;5.90;2.43;;;;;;;;;;5052359;28;20208;-88
2022/01/21 13:51:58;;;;;;;4.23;1.80;;;;;;;;;;5048031;28;20235;-89
2022/01/21 13:54:34;;;;;;;8.83;2.93;;;;;;;;;;5061715;28;20339;-89
2022/01/21 13:57:03;;;;;;;3.83;2.07;;;;;;;;;;5067537;28;20206;-88
2022/01/21 13:59:32;;;;;;;7.90;2.53;;;;;;;;;;5062851;28;20210;-89
2022/01/21 14:02:08;;;;;;;6.10;2.43;;;;;;;;;;5063938;28;20200;-88
2022/01/21 14:04:37;;;;;;;3.77;1.90;;;;;;;;;;5071407;28;20240;-87
2022/01/21 14:07:21;;;;;;;6.17;1.60;;;;;;;;;;5067548;28;20285;-88
2022/01/21 14:09:49;;;;;;;7.83;2.87;;;;;;;;;;5063815;28;20211;-89
2022/01/21 14:12:17;;;;;;;3.23;1.57;;;;;;;;;;5069862;28;20233;-87
2022/01/21 14:14:47;;;;;;;1.20;1.10;;;;;;;;;;5063924;28;20208;-89
2022/01/21 14:17:16;;;;;;;4.33;1.87;;;;;;;;;;5065523;28;20208;-90
2022/01/21 14:19:45;;;;;;;10.40;2.13;;;;;;;;;;5071138;28;20207;-90
2022/01/21 14:22:19;;;;;;;4.70;1.63;;;;;;;;;;5062725;28;20204;-89
2022/01/21 14:24:49;;;;;;;4.50;2.23;;;;;;;;;;5067459;28;20246;-88
2022/01/21 14:27:19;;;;;;;2.50;1.90;;;;;;;;;;5074137;28;20211;-87
2022/01/21 14:29:52;;;;;;;3.53;1.37;;;;;;;;;;5068172;28;20251;-90
2022/01/21 14:32:23;;;;;;;7.57;3.53;;;;;;;;;;5067331;28;20219;-88
2022/01/21 14:34:52;;;;;;;6.47;1.93;;;;;;;;;;5062980;28;20212;-89
2022/01/21 14:37:23;;;;;;;12.53;3.30;;;;;;;;;;5069372;28;20210;-89
2022/01/21 14:39:54;;;;;;;7.80;3.10;;;;;;;;;;5075743;28;20191;-89
2022/01/21 14:42:25;;;;;;;2.17;2.07;;;;;;;;;;5068050;28;20225;-88
2022/01/21 14:44:55;;;;;;;2.03;1.83;;;;;;;;;;5065225;28;20225;-88
2022/01/21 14:47:34;;;;;;;5.10;1.90;;;;;;;;;;5070107;28;20199;-88
2022/01/21 14:50:11;;;;;;;7.50;2.17;;;;;;;;;;5055604;28;20198;-87
2022/01/21 14:52:45;;;;;;;4.10;1.70;;;;;;;;;;5065778;28;20203;-87
2022/01/21 14:55:19;;;;;;;6.60;1.77;;;;;;;;;;5066155;28;20238;-88
2022/01/21 14:57:49;;;;;;;2.63;2.07;;;;;;;;;;5063121;28;20214;-87
2022/01/21 15:00:23;;;;;;;5.20;2.33;;;;;;;;;;5071400;28;20955;-86
2022/01/21 15:03:02;;;;;;;4.60;1.70;;;;;;;;;;5061752;28;20309;-87
2022/01/21 15:05:31;;;;;;;5.73;1.90;;;;;;;;;;5065844;28;20204;-88
2022/01/21 15:08:01;;;;;;;8.67;2.37;;;;;;;;;;5072479;28;20220;-87
2022/01/21 15:10:40;;;;;;;2.97;1.83;;;;;;;;;;5069317;28;20212;-89
2022/01/21 15:16:08;;;;;;;0.93;0.93;;;;;;;;;;5063496;28;20288;-87
2022/01/21 15:18:37;;;;;;;8.97;2.07;;;;;;;;;;5068120;28;20234;-87
2022/01/21 15:21:06;;;;;;;7.50;2.70;;;;;;;;;;5063824;28;20261;-88
2022/01/21 15:23:35;;;;;;;3.40;2.10;;;;;;;;;;5066339;28;20226;-88
2022/01/21 15:26:08;;;;;;;4.97;1.87;;;;;;;;;;5062139;28;20218;-88
2022/01/21 15:28:37;;;;;;;1.93;1.77;;;;;;;;;;5065968;28;20268;-87
2022/01/21 15:31:05;;;;;;;8.60;1.87;;;;;;;;;;5060327;28;20202;-88
2022/01/21 15:33:34;;;;;;;1.80;1.17;;;;;;;;;;5063642;28;20216;-87
2022/01/21 15:36:03;;;;;;;9.37;2.73;;;;;;;;;;5068417;28;20293;-87
2022/01/21 15:38:31;;;;;;;4.03;1.60;;;;;;;;;;5064558;28;20239;-86
2022/01/21 15:41:01;;;;;;;7.63;2.50;;;;;;;;;;5068195;28;20289;-86
2022/01/21 15:43:29;;;;;;;3.17;2.13;;;;;;;;;;5072171;28;20194;-87
2022/01/21 15:45:58;;;;;;;5.03;2.77;;;;;;;;;;5063471;28;20206;-86
2022/01/21 15:48:30;;;;;;;2.00;1.77;;;;;;;;;;5066227;28;20269;-87
2022/01/21 15:50:59;;;;;;;4.67;1.20;;;;;;;;;;5067183;28;20299;-86
2022/01/21 15:53:28;;;;;;;6.77;1.80;;;;;;;;;;5064775;28;20233;-86
2022/01/21 15:55:56;;;;;;;11.13;3.00;;;;;;;;;;5062016;28;20243;-87
2022/01/21 15:58:26;;;;;;;5.03;1.90;;;;;;;;;;5071782;28;20242;-87
2022/01/21 16:00:54;;;;;;;6.73;2.23;;;;;;;;;;5069207;28;20226;-87
2022/01/21 16:03:25;;;;;;;2.00;1.90;;;;;;;;;;5067406;28;20237;-88
2022/01/21 16:05:53;;;;;;;3.07;1.20;;;;;;;;;;5067789;28;20281;-87
2022/01/21 16:08:22;;;;;;;7.60;2.13;;;;;;;;;;5062936;28;20199;-86